Atlantic City, Wyoming
Current Conditions -  °F | °C
As of 6:55 PM on Sunday 21 Dec 2014 (Local Time) from KFWZ Reporting Station
Clear Clear  
Wind Chill: 22°   Ceiling: Unl
Heat Index: 28°   Visibility: 10mi
Dew Point: 16°   Wind: 6mph
Humidity: 59%   Direction: 320°NW
Pressure: 29.65"   Gusts: NA
Location:  42.6143°N, 108.586°W
Report Text: KFWZ 220155Z AUTO 32005KT 10SM CLR M02/M09 A2965 RMK AO2
Loading
Personal Weather Stations






























Interactive Weather Map New forecast layout! Learn more

10-Day Weather Forecast

Advertisements
Track Severe Weather on mobile